sensor_id;sensor_type;location;lat;lon;timestamp;pressure;altitude;pressure_sealevel;temperature;humidity
7180;BME280;3631;42.152;24.756;2023-05-20T00:02:09;85515.72;;;-144.30;85.05
7180;BME280;3631;42.152;24.756;2023-05-20T00:04:35;85549.50;;;-144.30;85.75
7180;BME280;3631;42.152;24.756;2023-05-20T00:07:02;85555.47;;;-144.30;85.83
7180;BME280;3631;42.152;24.756;2023-05-20T00:09:29;85547.53;;;-144.30;86.58
7180;BME280;3631;42.152;24.756;2023-05-20T00:11:58;85561.44;;;-144.30;87.10
7180;BME280;3631;42.152;24.756;2023-05-20T00:14:24;85489.88;;;-144.30;87.33
7180;BME280;3631;42.152;24.756;2023-05-20T00:16:51;85579.31;;;-144.30;88.01
7180;BME280;3631;42.152;24.756;2023-05-20T00:19:18;85555.47;;;-144.30;88.23
7180;BME280;3631;42.152;24.756;2023-05-20T00:21:45;85559.44;;;-144.30;88.39
7180;BME280;3631;42.152;24.756;2023-05-20T00:24:12;85591.25;;;-144.30;88.57
7180;BME280;3631;42.152;24.756;2023-05-20T00:26:39;85573.38;;;-144.30;88.81
7180;BME280;3631;42.152;24.756;2023-05-20T00:29:07;85579.31;;;-144.30;88.45
7180;BME280;3631;42.152;24.756;2023-05-20T00:31:34;85587.28;;;-144.30;88.38
7180;BME280;3631;42.152;24.756;2023-05-20T00:34:01;85573.38;;;-144.30;88.62
7180;BME280;3631;42.152;24.756;2023-05-20T00:36:28;85575.34;;;-144.30;88.30
7180;BME280;3631;42.152;24.756;2023-05-20T00:38:55;85561.44;;;-144.30;88.24
7180;BME280;3631;42.152;24.756;2023-05-20T00:41:22;85587.28;;;-144.30;88.21
7180;BME280;3631;42.152;24.756;2023-05-20T00:43:52;85599.22;;;-144.30;88.57
7180;BME280;3631;42.152;24.756;2023-05-20T00:46:21;85557.47;;;-144.30;89.05
7180;BME280;3631;42.152;24.756;2023-05-20T00:48:48;85587.28;;;-144.30;89.48
7180;BME280;3631;42.152;24.756;2023-05-20T00:51:16;85611.13;;;-144.30;89.66
7180;BME280;3631;42.152;24.756;2023-05-20T00:53:43;85565.41;;;-144.30;90.02
7180;BME280;3631;42.152;24.756;2023-05-20T00:56:10;85587.28;;;-144.30;90.58
7180;BME280;3631;42.152;24.756;2023-05-20T00:58:37;85593.25;;;-144.30;90.92
7180;BME280;3631;42.152;24.756;2023-05-20T01:01:05;85627.03;;;-144.30;91.44
7180;BME280;3631;42.152;24.756;2023-05-20T01:03:34;85579.31;;;-144.30;91.47
7180;BME280;3631;42.152;24.756;2023-05-20T01:06:01;85621.06;;;-144.30;91.76
7180;BME280;3631;42.152;24.756;2023-05-20T01:08:28;85631.03;;;-144.30;91.83
7180;BME280;3631;42.152;24.756;2023-05-20T01:10:58;85613.13;;;-144.30;92.04
7180;BME280;3631;42.152;24.756;2023-05-20T01:13:31;85601.19;;;-144.30;92.04
7180;BME280;3631;42.152;24.756;2023-05-20T01:16:00;85640.97;;;-144.30;92.43
7180;BME280;3631;42.152;24.756;2023-05-20T01:18:29;85615.13;;;-144.30;92.47
7180;BME280;3631;42.152;24.756;2023-05-20T01:21:01;85595.22;;;-144.30;92.31
7180;BME280;3631;42.152;24.756;2023-05-20T01:23:37;85646.91;;;-144.30;92.67
7180;BME280;3631;42.152;24.756;2023-05-20T01:26:04;85615.13;;;-144.30;94.24
7180;BME280;3631;42.152;24.756;2023-05-20T01:28:32;85642.94;;;-144.30;94.74
7180;BME280;3631;42.152;24.756;2023-05-20T01:31:00;85642.94;;;-144.30;94.60
7180;BME280;3631;42.152;24.756;2023-05-20T01:33:29;85672.75;;;-144.30;94.89
7180;BME280;3631;42.152;24.756;2023-05-20T01:35:57;85642.94;;;-144.30;95.02
7180;BME280;3631;42.152;24.756;2023-05-20T01:38:25;85644.94;;;-144.30;95.13
7180;BME280;3631;42.152;24.756;2023-05-20T01:40:56;85650.91;;;-144.30;94.60
7180;BME280;3631;42.152;24.756;2023-05-20T01:43:24;85644.94;;;-144.30;94.59
7180;BME280;3631;42.152;24.756;2023-05-20T01:45:52;85670.78;;;-144.30;94.12
7180;BME280;3631;42.152;24.756;2023-05-20T01:48:18;85698.63;;;-144.30;94.17
7180;BME280;3631;42.152;24.756;2023-05-20T01:50:45;85690.66;;;-144.30;93.86
7180;BME280;3631;42.152;24.756;2023-05-20T01:53:12;85668.78;;;-144.30;93.90
7180;BME280;3631;42.152;24.756;2023-05-20T01:55:39;85678.72;;;-144.30;93.51
7180;BME280;3631;42.152;24.756;2023-05-20T01:58:08;85710.53;;;-144.30;93.73
7180;BME280;3631;42.152;24.756;2023-05-20T02:00:35;85660.84;;;-144.30;94.23
7180;BME280;3631;42.152;24.756;2023-05-20T02:03:01;85710.53;;;-144.30;94.42
7180;BME280;3631;42.152;24.756;2023-05-20T02:05:29;85690.66;;;-144.30;94.90
7180;BME280;3631;42.152;24.756;2023-05-20T02:07:56;85674.75;;;-144.30;94.95
7180;BME280;3631;42.152;24.756;2023-05-20T02:10:22;85730.41;;;-144.30;94.92
7180;BME280;3631;42.152;24.756;2023-05-20T02:12:49;85712.53;;;-144.30;95.07
7180;BME280;3631;42.152;24.756;2023-05-20T02:15:18;85716.50;;;-144.30;95.72
7180;BME280;3631;42.152;24.756;2023-05-20T02:17:45;85722.47;;;-144.30;95.69
7180;BME280;3631;42.152;24.756;2023-05-20T02:20:12;85690.66;;;-144.30;95.94
7180;BME280;3631;42.152;24.756;2023-05-20T02:22:39;85686.69;;;-144.30;95.78
7180;BME280;3631;42.152;24.756;2023-05-20T02:25:07;85716.50;;;-144.30;95.59
7180;BME280;3631;42.152;24.756;2023-05-20T02:27:34;85704.56;;;-144.30;95.86
7180;BME280;3631;42.152;24.756;2023-05-20T02:30:01;85738.38;;;-144.30;95.76
7180;BME280;3631;42.152;24.756;2023-05-20T02:32:29;85726.44;;;-144.30;95.57
7180;BME280;3631;42.152;24.756;2023-05-20T02:34:58;85744.34;;;-144.30;95.71
7180;BME280;3631;42.152;24.756;2023-05-20T02:37:25;85716.50;;;-144.30;95.78
7180;BME280;3631;42.152;24.756;2023-05-20T02:39:51;85718.50;;;-144.30;95.72
7180;BME280;3631;42.152;24.756;2023-05-20T02:42:18;85710.53;;;-144.30;95.81
7180;BME280;3631;42.152;24.756;2023-05-20T02:44:45;85730.41;;;-144.30;95.29
7180;BME280;3631;42.152;24.756;2023-05-20T02:47:13;85766.22;;;-144.30;95.25
7180;BME280;3631;42.152;24.756;2023-05-20T02:49:41;85758.25;;;-144.30;94.89
7180;BME280;3631;42.152;24.756;2023-05-20T02:52:08;85754.28;;;-144.30;94.76
7180;BME280;3631;42.152;24.756;2023-05-20T02:54:35;85732.41;;;-144.30;94.48
7180;BME280;3631;42.152;24.756;2023-05-20T02:57:02;85734.41;;;-144.30;94.07
7180;BME280;3631;42.152;24.756;2023-05-20T02:59:31;85756.28;;;-144.30;93.69
7180;BME280;3631;42.152;24.756;2023-05-20T03:01:58;85746.31;;;-144.30;93.88
7180;BME280;3631;42.152;24.756;2023-05-20T03:04:25;85742.34;;;-144.30;93.40
7180;BME280;3631;42.152;24.756;2023-05-20T03:06:53;85736.38;;;-144.30;93.21
7180;BME280;3631;42.152;24.756;2023-05-20T03:09:22;85754.28;;;-144.30;92.81
7180;BME280;3631;42.152;24.756;2023-05-20T03:11:49;85746.31;;;-144.30;92.53
7180;BME280;3631;42.152;24.756;2023-05-20T03:14:16;85716.50;;;-144.30;92.29
7180;BME280;3631;42.152;24.756;2023-05-20T03:16:43;85744.34;;;-144.30;92.13
7180;BME280;3631;42.152;24.756;2023-05-20T03:19:10;85734.41;;;-144.30;92.08
7180;BME280;3631;42.152;24.756;2023-05-20T03:21:37;85692.66;;;-144.30;92.04
7180;BME280;3631;42.152;24.756;2023-05-20T03:24:05;85714.53;;;-144.30;91.38
7180;BME280;3631;42.152;24.756;2023-05-20T03:26:32;85730.41;;;-144.30;90.99
7180;BME280;3631;42.152;24.756;2023-05-20T03:29:02;85702.59;;;-144.30;91.24
7180;BME280;3631;42.152;24.756;2023-05-20T03:31:29;85708.56;;;-144.30;91.00
7180;BME280;3631;42.152;24.756;2023-05-20T03:33:55;85712.53;;;-144.30;90.84
7180;BME280;3631;42.152;24.756;2023-05-20T03:36:22;85712.53;;;-144.30;90.87
7180;BME280;3631;42.152;24.756;2023-05-20T03:38:49;85722.47;;;-144.30;90.15
7180;BME280;3631;42.152;24.756;2023-05-20T03:41:18;85710.53;;;-144.30;90.70
7180;BME280;3631;42.152;24.756;2023-05-20T03:43:45;85702.59;;;-144.30;90.40
7180;BME280;3631;42.152;24.756;2023-05-20T03:46:12;85714.53;;;-144.30;90.29
7180;BME280;3631;42.152;24.756;2023-05-20T03:48:39;85704.56;;;-144.30;91.17
7180;BME280;3631;42.152;24.756;2023-05-20T03:51:06;85684.69;;;-144.30;91.76
7180;BME280;3631;42.152;24.756;2023-05-20T03:53:32;85589.28;;;-144.30;89.60
7180;BME280;3631;42.152;24.756;2023-05-20T03:55:59;85448.13;;;-144.30;86.27
7180;BME280;3631;42.152;24.756;2023-05-20T03:58:28;85386.50;;;-144.30;79.76
7180;BME280;3631;42.152;24.756;2023-05-20T04:00:55;85418.31;;;-144.30;76.87
7180;BME280;3631;42.152;24.756;2023-05-20T04:03:22;85406.38;;;-144.30;77.34
7180;BME280;3631;42.152;24.756;2023-05-20T04:05:49;85471.97;;;-144.30;78.88
7180;BME280;3631;42.152;24.756;2023-05-20T04:08:16;85507.75;;;-144.30;80.50
7180;BME280;3631;42.152;24.756;2023-05-20T04:10:45;85497.81;;;-144.30;82.01
7180;BME280;3631;42.152;24.756;2023-05-20T04:13:12;85533.59;;;-144.30;81.99
7180;BME280;3631;42.152;24.756;2023-05-20T04:15:41;85523.66;;;-144.30;82.03
7180;BME280;3631;42.152;24.756;2023-05-20T04:18:09;85388.47;;;-144.30;80.51
7180;BME280;3631;42.152;24.756;2023-05-20T04:20:35;85195.66;;;-144.30;75.46
7180;BME280;3631;42.152;24.756;2023-05-20T04:23:02;84959.13;;;-144.30;66.10
7180;BME280;3631;42.152;24.756;2023-05-20T04:25:29;84831.91;;;-144.30;58.45
7180;BME280;3631;42.152;24.756;2023-05-20T04:27:56;84605.31;;;-144.30;53.77
7180;BME280;3631;42.152;24.756;2023-05-20T04:30:24;84386.72;;;-144.30;49.48
7180;BME280;3631;42.152;24.756;2023-05-20T04:32:53;84178.03;;;-144.30;45.48
7180;BME280;3631;42.152;24.756;2023-05-20T04:35:20;84080.66;;;-144.30;43.01
7180;BME280;3631;42.152;24.756;2023-05-20T04:37:50;84191.94;;;-144.30;43.14
7180;BME280;3631;42.152;24.756;2023-05-20T04:40:19;84500.00;;;-144.30;46.80
7180;BME280;3631;42.152;24.756;2023-05-20T04:42:47;84664.94;;;-144.30;49.88
7180;BME280;3631;42.152;24.756;2023-05-20T04:45:14;84839.84;;;-144.30;53.68
7180;BME280;3631;42.152;24.756;2023-05-20T04:47:41;84879.59;;;-144.30;56.45
7180;BME280;3631;42.152;24.756;2023-05-20T04:50:10;84869.66;;;-144.30;58.27
7180;BME280;3631;42.152;24.756;2023-05-20T04:52:38;84905.44;;;-144.30;54.07
7180;BME280;3631;42.152;24.756;2023-05-20T04:55:07;84303.25;;;-144.30;47.74
7180;BME280;3631;42.152;24.756;2023-05-20T04:57:35;84108.50;;;-144.30;44.12
7180;BME280;3631;42.152;24.756;2023-05-20T05:00:05;83854.13;;;-144.30;40.83
7180;BME280;3631;42.152;24.756;2023-05-20T05:02:33;83607.75;;;-144.30;38.27
7180;BME280;3631;42.152;24.756;2023-05-20T05:05:00;83597.81;;;-144.30;37.69
7180;BME280;3631;42.152;24.756;2023-05-20T05:07:28;83522.31;;;-144.30;36.96
7180;BME280;3631;42.152;24.756;2023-05-20T05:09:55;83494.50;;;-144.30;36.66
7180;BME280;3631;42.152;24.756;2023-05-20T05:12:22;83331.59;;;-144.30;35.46
7180;BME280;3631;42.152;24.756;2023-05-20T05:14:49;83303.75;;;-144.30;35.58
7180;BME280;3631;42.152;24.756;2023-05-20T05:17:16;83317.66;;;-144.30;35.19
7180;BME280;3631;42.152;24.756;2023-05-20T05:19:43;83361.38;;;-144.30;35.20
7180;BME280;3631;42.152;24.756;2023-05-20T05:22:10;83307.75;;;-144.30;34.96
7180;BME280;3631;42.152;24.756;2023-05-20T05:24:39;83238.19;;;-144.30;34.28
7180;BME280;3631;42.152;24.756;2023-05-20T05:27:05;83103.13;;;-144.30;33.82
7180;BME280;3631;42.152;24.756;2023-05-20T05:29:32;83051.47;;;-144.30;33.06
7180;BME280;3631;42.152;24.756;2023-05-20T05:31:59;83146.81;;;-144.30;33.33
7180;BME280;3631;42.152;24.756;2023-05-20T05:34:26;83019.69;;;-144.30;33.03
7180;BME280;3631;42.152;24.756;2023-05-20T05:36:53;82938.22;;;-144.30;32.66
7180;BME280;3631;42.152;24.756;2023-05-20T05:39:20;82823.00;;;-144.30;31.51
7180;BME280;3631;42.152;24.756;2023-05-20T05:41:48;82751.50;;;-144.30;31.63
7180;BME280;3631;42.152;24.756;2023-05-20T05:44:15;82465.47;;;-144.30;30.42
7180;BME280;3631;42.152;24.756;2023-05-20T05:46:42;82338.34;;;-144.30;29.70
7180;BME280;3631;42.152;24.756;2023-05-20T05:49:09;82372.13;;;-144.30;29.68
7180;BME280;3631;42.152;24.756;2023-05-20T05:51:36;82729.66;;;-144.30;30.95
7180;BME280;3631;42.152;24.756;2023-05-20T05:54:03;82912.41;;;-144.30;31.90
7180;BME280;3631;42.152;24.756;2023-05-20T05:56:30;82900.47;;;-144.30;32.18
7180;BME280;3631;42.152;24.756;2023-05-20T05:58:58;82884.59;;;-144.30;32.24
7180;BME280;3631;42.152;24.756;2023-05-20T06:01:25;82761.44;;;-144.30;31.73
7180;BME280;3631;42.152;24.756;2023-05-20T06:03:52;82592.59;;;-144.30;31.38
7180;BME280;3631;42.152;24.756;2023-05-20T06:06:19;82453.56;;;-144.30;30.51
7180;BME280;3631;42.152;24.756;2023-05-20T06:08:46;82419.78;;;-144.30;30.18
7180;BME280;3631;42.152;24.756;2023-05-20T06:11:13;82471.44;;;-144.30;30.65
7180;BME280;3631;42.152;24.756;2023-05-20T06:13:40;82477.38;;;-144.30;30.60
7180;BME280;3631;42.152;24.756;2023-05-20T06:16:10;82348.28;;;-144.30;30.13
7180;BME280;3631;42.152;24.756;2023-05-20T06:18:37;82340.34;;;-144.30;30.03
7180;BME280;3631;42.152;24.756;2023-05-20T06:21:04;82328.41;;;-144.30;29.53
7180;BME280;3631;42.152;24.756;2023-05-20T06:23:31;82399.91;;;-144.30;29.67
7180;BME280;3631;42.152;24.756;2023-05-20T06:25:59;82701.84;;;-144.30;30.18
7180;BME280;3631;42.152;24.756;2023-05-20T06:28:26;82423.75;;;-144.30;29.93
7180;BME280;3631;42.152;24.756;2023-05-20T06:30:53;82542.94;;;-144.30;30.43
7180;BME280;3631;42.152;24.756;2023-05-20T06:33:23;82582.66;;;-144.30;30.59
7180;BME280;3631;42.152;24.756;2023-05-20T06:35:51;82576.69;;;-144.30;30.01
7180;BME280;3631;42.152;24.756;2023-05-20T06:38:18;82578.69;;;-144.30;30.31
7180;BME280;3631;42.152;24.756;2023-05-20T06:40:46;82519.09;;;-144.30;30.00
7180;BME280;3631;42.152;24.756;2023-05-20T06:43:14;82701.84;;;-144.30;29.66
7180;BME280;3631;42.152;24.756;2023-05-20T06:45:41;82503.22;;;-144.30;29.82
7180;BME280;3631;42.152;24.756;2023-05-20T06:48:08;82620.41;;;-144.30;29.71
7180;BME280;3631;42.152;24.756;2023-05-20T06:50:37;82834.94;;;-144.30;30.29
7180;BME280;3631;42.152;24.756;2023-05-20T06:53:04;82828.97;;;-144.30;30.64
7180;BME280;3631;42.152;24.756;2023-05-20T06:55:31;82926.31;;;-144.30;31.36
7180;BME280;3631;42.152;24.756;2023-05-20T06:57:58;82916.38;;;-144.30;30.95
7180;BME280;3631;42.152;24.756;2023-05-20T07:00:25;82918.38;;;-144.30;31.30
7180;BME280;3631;42.152;24.756;2023-05-20T07:02:52;82821.03;;;-144.30;30.81
7180;BME280;3631;42.152;24.756;2023-05-20T07:05:19;82749.50;;;-144.30;30.97
7180;BME280;3631;42.152;24.756;2023-05-20T07:07:48;82832.94;;;-144.30;30.83
7180;BME280;3631;42.152;24.756;2023-05-20T07:10:15;82876.66;;;-144.30;31.02
7180;BME280;3631;42.152;24.756;2023-05-20T07:12:42;82848.84;;;-144.30;30.84
7180;BME280;3631;42.152;24.756;2023-05-20T07:15:10;82910.41;;;-144.30;30.76
7180;BME280;3631;42.152;24.756;2023-05-20T07:17:37;82880.63;;;-144.30;30.77
7180;BME280;3631;42.152;24.756;2023-05-20T07:20:05;82823.00;;;-144.30;30.62
7180;BME280;3631;42.152;24.756;2023-05-20T07:22:32;82761.44;;;-144.30;30.30
7180;BME280;3631;42.152;24.756;2023-05-20T07:25:00;82805.13;;;-144.30;30.28
7180;BME280;3631;42.152;24.756;2023-05-20T07:27:28;82797.19;;;-144.30;29.86
7180;BME280;3631;42.152;24.756;2023-05-20T07:29:55;82743.56;;;-144.30;29.53
7180;BME280;3631;42.152;24.756;2023-05-20T07:32:22;82805.13;;;-144.30;29.71
7180;BME280;3631;42.152;24.756;2023-05-20T07:34:49;82797.19;;;-144.30;29.69
7180;BME280;3631;42.152;24.756;2023-05-20T07:37:16;82854.78;;;-144.30;29.56
7180;BME280;3631;42.152;24.756;2023-05-20T07:39:43;82817.06;;;-144.30;29.26
7180;BME280;3631;42.152;24.756;2023-05-20T07:42:11;82606.50;;;-144.30;28.90
7180;BME280;3631;42.152;24.756;2023-05-20T07:44:38;82505.19;;;-144.30;28.49
7180;BME280;3631;42.152;24.756;2023-05-20T07:47:05;82304.59;;;-144.30;28.18
7180;BME280;3631;42.152;24.756;2023-05-20T07:49:32;82536.97;;;-144.30;28.35
7180;BME280;3631;42.152;24.756;2023-05-20T07:52:00;82533.00;;;-144.30;28.31
7180;BME280;3631;42.152;24.756;2023-05-20T07:54:27;82535.00;;;-144.30;28.46
7180;BME280;3631;42.152;24.756;2023-05-20T07:56:53;82515.13;;;-144.30;28.29
7180;BME280;3631;42.152;24.756;2023-05-20T07:59:23;82382.03;;;-144.30;27.88
7180;BME280;3631;42.152;24.756;2023-05-20T08:01:50;82219.19;;;-144.30;27.41
7180;BME280;3631;42.152;24.756;2023-05-20T08:04:17;82131.78;;;-144.30;27.15
7180;BME280;3631;42.152;24.756;2023-05-20T08:06:44;82078.16;;;-144.30;26.89
7180;BME280;3631;42.152;24.756;2023-05-20T08:09:11;82167.53;;;-144.30;26.87
7180;BME280;3631;42.152;24.756;2023-05-20T08:11:38;82113.91;;;-144.30;26.89
7180;BME280;3631;42.152;24.756;2023-05-20T08:14:05;82102.00;;;-144.30;26.90
7180;BME280;3631;42.152;24.756;2023-05-20T08:16:35;82193.38;;;-144.30;26.96
7180;BME280;3631;42.152;24.756;2023-05-20T08:19:02;82419.78;;;-144.30;27.53
7180;BME280;3631;42.152;24.756;2023-05-20T08:21:29;82479.38;;;-144.30;27.39
7180;BME280;3631;42.152;24.756;2023-05-20T08:23:56;82695.88;;;-144.30;28.28
7180;BME280;3631;42.152;24.756;2023-05-20T08:26:23;82626.34;;;-144.30;28.37
7180;BME280;3631;42.152;24.756;2023-05-20T08:28:51;82725.69;;;-144.30;28.43
7180;BME280;3631;42.152;24.756;2023-05-20T08:31:18;82687.94;;;-144.30;28.22
7180;BME280;3631;42.152;24.756;2023-05-20T08:33:46;82765.41;;;-144.30;28.76
7180;BME280;3631;42.152;24.756;2023-05-20T08:36:13;82811.09;;;-144.30;28.95
7180;BME280;3631;42.152;24.756;2023-05-20T08:38:40;82834.94;;;-144.30;28.78
7180;BME280;3631;42.152;24.756;2023-05-20T08:41:08;82769.38;;;-144.30;29.09
7180;BME280;3631;42.152;24.756;2023-05-20T08:43:35;82932.28;;;-144.30;29.09
7180;BME280;3631;42.152;24.756;2023-05-20T08:46:03;83019.69;;;-144.30;30.13
7180;BME280;3631;42.152;24.756;2023-05-20T08:48:32;83134.91;;;-144.30;30.58
7180;BME280;3631;42.152;24.756;2023-05-20T08:51:02;83309.72;;;-144.30;31.47
7180;BME280;3631;42.152;24.756;2023-05-20T08:53:29;83438.88;;;-144.30;31.98
7180;BME280;3631;42.152;24.756;2023-05-20T08:55:59;83353.44;;;-144.30;32.53
7180;BME280;3631;42.152;24.756;2023-05-20T08:58:27;83333.56;;;-144.30;32.32
7180;BME280;3631;42.152;24.756;2023-05-20T09:00:54;83424.97;;;-144.30;32.94
7180;BME280;3631;42.152;24.756;2023-05-20T09:03:21;83389.19;;;-144.30;32.53
7180;BME280;3631;42.152;24.756;2023-05-20T09:05:48;83262.03;;;-144.30;32.18
7180;BME280;3631;42.152;24.756;2023-05-20T09:08:17;83597.81;;;-144.30;32.22
7180;BME280;3631;42.152;24.756;2023-05-20T09:10:44;83548.16;;;-144.30;32.59
7180;BME280;3631;42.152;24.756;2023-05-20T09:13:11;83661.41;;;-144.30;33.22
7180;BME280;3631;42.152;24.756;2023-05-20T09:15:37;83790.56;;;-144.30;34.32
7180;BME280;3631;42.152;24.756;2023-05-20T09:18:06;83738.88;;;-144.30;35.06
7180;BME280;3631;42.152;24.756;2023-05-20T09:20:33;83734.91;;;-144.30;34.40
7180;BME280;3631;42.152;24.756;2023-05-20T09:23:03;83854.13;;;-144.30;34.74
7180;BME280;3631;42.152;24.756;2023-05-20T09:25:32;83877.97;;;-144.30;35.25
7180;BME280;3631;42.152;24.756;2023-05-20T09:28:00;83897.84;;;-144.30;35.61
7180;BME280;3631;42.152;24.756;2023-05-20T09:30:27;83979.31;;;-144.30;36.67
7180;BME280;3631;42.152;24.756;2023-05-20T09:32:54;83949.50;;;-144.30;37.01
7180;BME280;3631;42.152;24.756;2023-05-20T09:35:22;84046.88;;;-144.30;37.69
7180;BME280;3631;42.152;24.756;2023-05-20T09:37:51;83963.44;;;-144.30;38.28
7180;BME280;3631;42.152;24.756;2023-05-20T09:40:22;83945.53;;;-144.30;38.58
7180;BME280;3631;42.152;24.756;2023-05-20T09:42:52;83901.81;;;-144.30;38.36
7180;BME280;3631;42.152;24.756;2023-05-20T09:45:20;83913.75;;;-144.30;38.98
7180;BME280;3631;42.152;24.756;2023-05-20T09:47:49;83858.09;;;-144.30;38.39
7180;BME280;3631;42.152;24.756;2023-05-20T09:50:18;83885.94;;;-144.30;37.60
7180;BME280;3631;42.152;24.756;2023-05-20T09:52:47;83876.00;;;-144.30;37.23
7180;BME280;3631;42.152;24.756;2023-05-20T09:55:15;84452.28;;;-144.30;37.21
7180;BME280;3631;42.152;24.756;2023-05-20T09:57:42;83826.31;;;-144.30;36.29
7180;BME280;3631;42.152;24.756;2023-05-20T10:00:12;83866.06;;;-144.30;35.87
7180;BME280;3631;42.152;24.756;2023-05-20T10:02:43;83866.06;;;-144.30;36.67
7180;BME280;3631;42.152;24.756;2023-05-20T10:05:14;84283.38;;;-144.30;37.74
7180;BME280;3631;42.152;24.756;2023-05-20T10:08:19;84023.03;;;-144.30;38.22
7180;BME280;3631;42.152;24.756;2023-05-20T10:10:51;84009.13;;;-144.30;38.54
7180;BME280;3631;42.152;24.756;2023-05-20T10:13:30;84009.13;;;-144.30;38.33
7180;BME280;3631;42.152;24.756;2023-05-20T10:16:16;84029.00;;;-144.30;39.11
7180;BME280;3631;42.152;24.756;2023-05-20T10:18:54;83989.25;;;-144.30;39.23
7180;BME280;3631;42.152;24.756;2023-05-20T10:21:23;83997.22;;;-144.30;39.07
7180;BME280;3631;42.152;24.756;2023-05-20T10:23:51;83997.22;;;-144.30;38.63
7180;BME280;3631;42.152;24.756;2023-05-20T10:26:18;83979.31;;;-144.30;39.16
7180;BME280;3631;42.152;24.756;2023-05-20T10:28:47;83975.34;;;-144.30;37.08
7180;BME280;3631;42.152;24.756;2023-05-20T10:31:17;84064.78;;;-144.30;36.24
7180;BME280;3631;42.152;24.756;2023-05-20T10:33:47;84072.72;;;-144.30;36.42
7180;BME280;3631;42.152;24.756;2023-05-20T10:36:25;84092.59;;;-144.30;36.24
7180;BME280;3631;42.152;24.756;2023-05-20T10:38:53;84060.78;;;-144.30;36.01
7180;BME280;3631;42.152;24.756;2023-05-20T10:41:21;84042.91;;;-144.30;35.37
7180;BME280;3631;42.152;24.756;2023-05-20T10:43:58;84062.78;;;-144.30;36.14
7180;BME280;3631;42.152;24.756;2023-05-20T10:46:28;84076.69;;;-144.30;35.79
7180;BME280;3631;42.152;24.756;2023-05-20T10:48:56;84044.91;;;-144.30;36.40
7180;BME280;3631;42.152;24.756;2023-05-20T10:51:23;84100.53;;;-144.30;37.96
7180;BME280;3631;42.152;24.756;2023-05-20T10:53:54;84221.75;;;-144.30;39.17
7180;BME280;3631;42.152;24.756;2023-05-20T10:56:22;84211.81;;;-144.30;39.80
7180;BME280;3631;42.152;24.756;2023-05-20T10:58:50;84225.75;;;-144.30;40.15
7180;BME280;3631;42.152;24.756;2023-05-20T11:01:22;84263.50;;;-144.30;40.07
7180;BME280;3631;42.152;24.756;2023-05-20T11:03:51;84281.38;;;-144.30;40.65
7180;BME280;3631;42.152;24.756;2023-05-20T11:06:25;84305.22;;;-144.30;40.65
7180;BME280;3631;42.152;24.756;2023-05-20T11:08:53;84315.16;;;-144.30;40.26
7180;BME280;3631;42.152;24.756;2023-05-20T11:11:21;84342.97;;;-144.30;39.55
7180;BME280;3631;42.152;24.756;2023-05-20T11:13:49;84277.41;;;-144.30;40.16
7180;BME280;3631;42.152;24.756;2023-05-20T11:16:17;84356.91;;;-144.30;40.48
7180;BME280;3631;42.152;24.756;2023-05-20T11:18:44;84370.81;;;-144.30;40.98
7180;BME280;3631;42.152;24.756;2023-05-20T11:21:15;84180.03;;;-144.30;41.42
7180;BME280;3631;42.152;24.756;2023-05-20T11:23:42;84309.19;;;-144.30;40.85
7180;BME280;3631;42.152;24.756;2023-05-20T11:26:09;84313.19;;;-144.30;40.91
7180;BME280;3631;42.152;24.756;2023-05-20T11:28:37;84291.31;;;-144.30;40.77
7180;BME280;3631;42.152;24.756;2023-05-20T11:31:04;84335.03;;;-144.30;40.66
7180;BME280;3631;42.152;24.756;2023-05-20T11:33:31;84303.25;;;-144.30;41.23
7180;BME280;3631;42.152;24.756;2023-05-20T11:35:58;84323.13;;;-144.30;41.25
7180;BME280;3631;42.152;24.756;2023-05-20T11:38:27;84297.28;;;-144.30;40.77
7180;BME280;3631;42.152;24.756;2023-05-20T11:40:56;84301.25;;;-144.30;40.05
7180;BME280;3631;42.152;24.756;2023-05-20T11:43:23;84267.47;;;-144.30;40.67
7180;BME280;3631;42.152;24.756;2023-05-20T11:45:52;84199.91;;;-144.30;39.34
7180;BME280;3631;42.152;24.756;2023-05-20T11:48:20;84221.75;;;-144.30;38.42
7180;BME280;3631;42.152;24.756;2023-05-20T11:50:47;84108.50;;;-144.30;38.21
7180;BME280;3631;42.152;24.756;2023-05-20T11:53:15;84203.88;;;-144.30;37.62
7180;BME280;3631;42.152;24.756;2023-05-20T11:55:45;84201.88;;;-144.30;36.65
7180;BME280;3631;42.152;24.756;2023-05-20T11:58:18;84164.13;;;-144.30;36.89
7180;BME280;3631;42.152;24.756;2023-05-20T12:00:45;84263.50;;;-144.30;37.41
7180;BME280;3631;42.152;24.756;2023-05-20T12:03:12;84211.81;;;-144.30;38.17
7180;BME280;3631;42.152;24.756;2023-05-20T12:05:40;84249.59;;;-144.30;38.15
7180;BME280;3631;42.152;24.756;2023-05-20T12:08:07;84235.66;;;-144.30;38.48
7180;BME280;3631;42.152;24.756;2023-05-20T12:10:34;84241.63;;;-144.30;38.31
7180;BME280;3631;42.152;24.756;2023-05-20T12:13:03;84303.25;;;-144.30;37.59
7180;BME280;3631;42.152;24.756;2023-05-20T12:15:33;84315.16;;;-144.30;37.61
7180;BME280;3631;42.152;24.756;2023-05-20T12:18:00;84307.22;;;-144.30;37.61
7180;BME280;3631;42.152;24.756;2023-05-20T12:20:27;84281.38;;;-144.30;37.84
7180;BME280;3631;42.152;24.756;2023-05-20T12:22:55;84265.47;;;-144.30;38.07
7180;BME280;3631;42.152;24.756;2023-05-20T12:25:23;84311.19;;;-144.30;37.59
7180;BME280;3631;42.152;24.756;2023-05-20T12:27:50;84275.41;;;-144.30;37.78
7180;BME280;3631;42.152;24.756;2023-05-20T12:30:19;84271.44;;;-144.30;37.63
7180;BME280;3631;42.152;24.756;2023-05-20T12:32:48;84462.22;;;-144.30;37.69
7180;BME280;3631;42.152;24.756;2023-05-20T12:35:15;84245.59;;;-144.30;37.73
7180;BME280;3631;42.152;24.756;2023-05-20T12:37:43;84257.53;;;-144.30;37.68
7180;BME280;3631;42.152;24.756;2023-05-20T12:40:11;84289.31;;;-144.30;37.98
7180;BME280;3631;42.152;24.756;2023-05-20T12:42:39;84235.66;;;-144.30;38.36
7180;BME280;3631;42.152;24.756;2023-05-20T12:45:07;84251.56;;;-144.30;38.13
7180;BME280;3631;42.152;24.756;2023-05-20T12:47:36;84267.47;;;-144.30;38.37
7180;BME280;3631;42.152;24.756;2023-05-20T12:50:04;84279.38;;;-144.30;38.72
7180;BME280;3631;42.152;24.756;2023-05-20T12:52:31;84315.16;;;-144.30;38.76
7180;BME280;3631;42.152;24.756;2023-05-20T12:54:58;84283.38;;;-144.30;39.11